createdAt,value
2023-05-09T00:01:30.986Z,3.01
2023-05-09T00:04:02.898Z,2.84
2023-05-09T00:06:33.247Z,2.72
2023-05-09T00:09:02.676Z,2.62
2023-05-09T00:14:08.830Z,2.37
2023-05-09T00:16:38.522Z,2.31
2023-05-09T00:19:09.961Z,2.21
2023-05-09T00:21:45.103Z,2.14
2023-05-09T00:24:20.486Z,2.04
2023-05-09T00:26:49.890Z,1.99
2023-05-09T00:29:19.272Z,1.93
2023-05-09T00:31:53.962Z,1.80
2023-05-09T00:34:25.169Z,1.80
2023-05-09T00:36:54.381Z,1.72
2023-05-09T00:39:33.860Z,1.62
2023-05-09T00:42:03.246Z,1.54
2023-05-09T00:44:32.531Z,1.59
2023-05-09T00:47:02.127Z,1.56
2023-05-09T00:49:33.333Z,1.50
2023-05-09T00:52:09.464Z,1.47
2023-05-09T00:54:38.718Z,1.39
2023-05-09T00:57:08.102Z,1.44
2023-05-09T00:59:37.769Z,1.45
2023-05-09T01:02:07.174Z,1.21
2023-05-09T01:04:38.641Z,1.43
2023-05-09T01:07:15.852Z,1.44
2023-05-09T01:09:52.759Z,1.37
2023-05-09T01:12:33.446Z,1.30
2023-05-09T01:15:14.620Z,1.22
2023-05-09T01:18:00.201Z,1.34
2023-05-09T01:20:40.175Z,1.03
2023-05-09T01:23:36.997Z,1.42
2023-05-09T01:26:08.186Z,1.28
2023-05-09T01:29:01.268Z,1.33
2023-05-09T01:31:40.463Z,1.29
2023-05-09T01:34:16.978Z,1.28
2023-05-09T01:36:48.859Z,1.22
2023-05-09T01:39:21.966Z,1.22
2023-05-09T01:41:52.517Z,1.23
2023-05-09T01:44:24.352Z,1.34
2023-05-09T01:46:56.594Z,1.50
2023-05-09T01:49:27.311Z,1.58
2023-05-09T01:52:03.217Z,1.64
2023-05-09T01:54:34.286Z,1.74
2023-05-09T01:57:06.246Z,1.83
2023-05-09T01:59:36.661Z,1.93
2023-05-09T02:02:09.700Z,2.08
2023-05-09T02:04:40.732Z,2.38
2023-05-09T02:07:11.467Z,2.76
2023-05-09T02:09:41.006Z,2.72
2023-05-09T02:12:10.632Z,3.11
2023-05-09T02:17:18.959Z,3.62
2023-05-09T02:19:48.495Z,3.84
2023-05-09T02:22:37.852Z,4.00
2023-05-09T02:25:15.011Z,4.16
2023-05-09T02:27:46.227Z,4.24
2023-05-09T02:30:20.758Z,4.19
2023-05-09T02:32:53.843Z,4.31
2023-05-09T02:35:24.697Z,4.36
2023-05-09T02:37:55.194Z,4.38
2023-05-09T02:40:25.191Z,4.51
2023-05-09T02:42:54.477Z,4.66
2023-05-09T02:45:25.027Z,4.57
2023-05-09T02:47:56.374Z,4.63
2023-05-09T02:50:25.843Z,4.71
2023-05-09T02:52:55.137Z,4.77
2023-05-09T02:55:29.856Z,4.82
2023-05-09T02:58:11.999Z,4.97
2023-05-09T03:00:44.608Z,5.05
2023-05-09T03:03:18.807Z,5.11
2023-05-09T03:05:48.789Z,5.11
2023-05-09T03:08:18.270Z,5.04
2023-05-09T03:10:48.381Z,5.16
2023-05-09T03:13:18.560Z,5.17
2023-05-09T03:15:53.091Z,5.25
2023-05-09T03:18:24.725Z,5.31
2023-05-09T03:20:54.618Z,5.33
2023-05-09T03:23:24.155Z,5.43
2023-05-09T03:25:58.748Z,5.40
2023-05-09T03:28:29.898Z,5.37
2023-05-09T03:31:07.919Z,5.59
2023-05-09T03:33:39.204Z,5.66
2023-05-09T03:36:14.655Z,5.62
2023-05-09T03:38:46.685Z,5.71
2023-05-09T03:41:18.348Z,5.79
2023-05-09T03:43:49.767Z,6.06
2023-05-09T03:46:24.230Z,6.27
2023-05-09T03:48:55.881Z,6.43
2023-05-09T03:51:32.007Z,6.54
2023-05-09T03:54:02.807Z,6.61
2023-05-09T03:56:32.297Z,6.71
2023-05-09T03:59:01.787Z,6.79
2023-05-09T04:01:32.047Z,6.93
2023-05-09T04:04:05.502Z,7.12
2023-05-09T04:06:38.445Z,7.40
2023-05-09T04:09:10.922Z,7.75
2023-05-09T04:11:43.553Z,8.07
2023-05-09T04:14:19.887Z,8.32
2023-05-09T04:16:49.405Z,8.54
2023-05-09T04:19:21.039Z,8.66
2023-05-09T04:21:50.876Z,8.72
2023-05-09T04:24:20.660Z,8.83
2023-05-09T04:26:51.103Z,8.95
2023-05-09T04:29:24.163Z,9.14
2023-05-09T04:31:59.637Z,9.33
2023-05-09T04:34:31.919Z,9.60
2023-05-09T04:37:06.286Z,9.95
2023-05-09T04:39:35.773Z,10.14
2023-05-09T04:42:29.205Z,10.08
2023-05-09T04:44:58.605Z,10.02
2023-05-09T04:47:41.365Z,10.02
2023-05-09T04:50:18.489Z,9.99
2023-05-09T04:52:48.369Z,9.95
2023-05-09T04:55:18.238Z,9.98
2023-05-09T04:57:50.945Z,9.94
2023-05-09T05:00:21.100Z,9.93
2023-05-09T05:03:11.716Z,9.99
2023-05-09T05:05:43.513Z,9.96
2023-05-09T05:08:13.939Z,10.15
2023-05-09T05:10:44.619Z,10.24
2023-05-09T05:13:21.203Z,9.98
2023-05-09T05:15:54.518Z,10.07
2023-05-09T05:18:24.346Z,9.99
2023-05-09T05:20:55.754Z,9.88
2023-05-09T05:23:30.873Z,9.95
2023-05-09T05:26:00.333Z,9.94
2023-05-09T05:28:30.632Z,9.90
2023-05-09T05:31:05.226Z,9.90
2023-05-09T05:33:35.225Z,9.92
2023-05-09T05:36:07.791Z,9.88
2023-05-09T05:38:37.211Z,9.80
2023-05-09T05:41:11.905Z,9.80
2023-05-09T05:43:43.523Z,9.79
2023-05-09T05:46:18.871Z,9.73
2023-05-09T05:48:48.257Z,9.71
2023-05-09T05:51:19.521Z,9.76
2023-05-09T05:53:49.196Z,9.78
2023-05-09T05:56:18.546Z,9.79
2023-05-09T05:58:48.239Z,9.76
2023-05-09T06:01:23.320Z,9.76
2023-05-09T06:03:54.571Z,9.54
2023-05-09T06:06:29.011Z,9.79
2023-05-09T06:08:58.698Z,9.90
2023-05-09T06:11:27.900Z,10.01
2023-05-09T06:13:57.265Z,10.09
2023-05-09T06:16:28.265Z,10.17
2023-05-09T06:18:57.768Z,10.21
2023-05-09T06:21:29.041Z,10.27
2023-05-09T06:24:11.804Z,10.29
2023-05-09T06:26:43.917Z,10.44
2023-05-09T06:29:14.825Z,10.41
2023-05-09T06:31:44.227Z,10.36
2023-05-09T06:34:13.607Z,10.48
2023-05-09T06:36:45.160Z,10.54
2023-05-09T06:39:14.565Z,10.51
2023-05-09T06:41:43.781Z,10.49
2023-05-09T06:44:31.787Z,10.57
2023-05-09T06:47:01.431Z,10.71
2023-05-09T06:49:30.656Z,10.82
2023-05-09T06:52:02.781Z,11.04
2023-05-09T06:54:32.586Z,11.07
2023-05-09T06:57:02.614Z,11.05
2023-05-09T06:59:32.663Z,11.04
2023-05-09T07:02:02.185Z,11.00
2023-05-09T07:04:38.496Z,11.22
2023-05-09T07:07:09.852Z,11.33
2023-05-09T07:09:39.437Z,11.41
2023-05-09T07:12:08.982Z,11.80
2023-05-09T07:14:38.257Z,11.52
2023-05-09T07:17:21.982Z,11.46
2023-05-09T07:19:53.013Z,11.59
2023-05-09T07:22:24.505Z,11.93
2023-05-09T07:24:54.002Z,11.98
2023-05-09T07:27:23.175Z,11.77
2023-05-09T07:29:53.255Z,11.82
2023-05-09T07:32:23.648Z,11.77
2023-05-09T07:34:53.132Z,11.63
2023-05-09T07:37:24.468Z,11.50
2023-05-09T07:39:53.827Z,11.58
2023-05-09T07:42:23.009Z,11.63
2023-05-09T07:44:52.571Z,11.81
2023-05-09T07:47:21.845Z,12.09
2023-05-09T07:49:56.368Z,12.72
2023-05-09T07:52:27.700Z,13.29
2023-05-09T07:54:57.263Z,13.62
2023-05-09T07:57:26.608Z,13.95
2023-05-09T07:59:56.196Z,14.30
2023-05-09T08:02:26.053Z,14.48
2023-05-09T08:04:55.578Z,14.78
2023-05-09T08:07:32.117Z,15.10
2023-05-09T08:10:01.693Z,14.95
2023-05-09T08:12:32.230Z,14.83
2023-05-09T08:15:01.582Z,14.39
2023-05-09T08:17:36.819Z,14.37
2023-05-09T08:20:26.038Z,14.33
2023-05-09T08:22:57.605Z,14.56
2023-05-09T08:25:27.039Z,14.76
2023-05-09T08:27:56.724Z,15.05
2023-05-09T08:30:26.764Z,14.90
2023-05-09T08:32:56.060Z,14.68
2023-05-09T08:35:25.395Z,14.66
2023-05-09T08:37:56.786Z,14.72
2023-05-09T08:40:26.290Z,14.90
2023-05-09T08:43:15.510Z,14.83
2023-05-09T08:45:49.107Z,14.76
2023-05-09T08:48:18.825Z,15.06
2023-05-09T08:50:48.122Z,15.20
2023-05-09T08:53:21.255Z,15.11
2023-05-09T09:01:08.685Z,14.14
2023-05-09T09:03:40.114Z,13.57
2023-05-09T09:06:11.461Z,13.27
2023-05-09T09:08:43.680Z,13.01
2023-05-09T09:11:14.225Z,13.00
2023-05-09T09:13:45.814Z,12.93
2023-05-09T09:16:27.146Z,13.00
2023-05-09T09:18:58.933Z,12.99
2023-05-09T09:21:35.294Z,13.02
2023-05-09T09:24:09.832Z,13.33
2023-05-09T09:26:48.414Z,13.74
2023-05-09T09:29:27.525Z,13.93
2023-05-09T09:32:01.943Z,14.16
2023-05-09T09:34:46.335Z,14.31
2023-05-09T09:37:24.098Z,14.78
2023-05-09T09:39:58.845Z,15.21
2023-05-09T09:42:28.390Z,15.78
2023-05-09T09:44:59.372Z,16.02
2023-05-09T09:47:35.426Z,16.05
2023-05-09T09:50:13.917Z,15.86
2023-05-09T09:52:55.550Z,15.64
2023-05-09T09:55:27.388Z,15.40
2023-05-09T09:57:56.828Z,15.76
2023-05-09T10:00:29.658Z,15.55
2023-05-09T10:03:00.634Z,15.62
2023-05-09T10:05:31.440Z,15.31
2023-05-09T10:08:02.224Z,15.16
2023-05-09T10:10:35.258Z,15.30
2023-05-09T10:13:06.104Z,15.49
2023-05-09T10:15:52.212Z,15.51
2023-05-09T10:18:35.799Z,15.65
2023-05-09T10:21:06.603Z,15.97
2023-05-09T10:23:39.634Z,15.81
2023-05-09T10:26:20.710Z,15.59
2023-05-09T10:28:51.831Z,15.24
2023-05-09T10:31:27.194Z,14.77
2023-05-09T10:33:57.622Z,14.77
2023-05-09T10:36:28.170Z,14.83
2023-05-09T10:38:57.945Z,14.96
2023-05-09T10:41:29.376Z,15.20
2023-05-09T10:44:00.167Z,15.25
2023-05-09T10:46:30.184Z,15.24
2023-05-09T10:48:59.966Z,15.30
2023-05-09T10:51:31.112Z,15.46
2023-05-09T10:54:00.549Z,15.75
2023-05-09T10:56:35.521Z,16.03
2023-05-09T10:59:05.387Z,16.18
2023-05-09T11:01:37.412Z,16.59
2023-05-09T11:04:12.698Z,16.45
2023-05-09T11:06:48.951Z,15.92
2023-05-09T11:09:42.018Z,15.60
2023-05-09T11:12:17.244Z,15.15
2023-05-09T11:14:54.328Z,15.33
2023-05-09T11:17:32.435Z,15.39
2023-05-09T11:20:05.110Z,15.28
2023-05-09T11:22:49.582Z,15.01
2023-05-09T11:25:21.507Z,14.63
2023-05-09T11:27:52.667Z,14.33
2023-05-09T11:30:22.940Z,13.69
2023-05-09T11:32:59.756Z,13.11
2023-05-09T11:35:29.984Z,13.15
2023-05-09T11:38:03.671Z,13.08
2023-05-09T11:40:34.249Z,13.14
2023-05-09T11:43:05.672Z,13.41
2023-05-09T11:45:43.939Z,13.58
2023-05-09T11:48:13.392Z,13.57
2023-05-09T11:50:43.035Z,14.29
2023-05-09T11:53:13.028Z,14.65
2023-05-09T11:55:43.445Z,15.26
2023-05-09T11:58:15.776Z,15.71
2023-05-09T12:00:47.036Z,15.99
2023-05-09T12:03:16.899Z,16.19
2023-05-09T12:05:46.946Z,16.18
2023-05-09T12:08:21.489Z,16.35
2023-05-09T12:10:51.152Z,16.77
2023-05-09T12:16:08.862Z,16.87
2023-05-09T12:18:38.269Z,16.66
2023-05-09T12:21:07.806Z,16.38
2023-05-09T12:23:37.286Z,16.04
2023-05-09T12:26:12.277Z,15.57
2023-05-09T12:28:44.609Z,15.28
2023-05-09T12:31:14.384Z,14.99
2023-05-09T12:33:44.033Z,14.73
2023-05-09T12:36:15.787Z,14.21
2023-05-09T12:38:55.450Z,13.69
2023-05-09T12:51:39.672Z,12.39
2023-05-09T12:54:15.737Z,12.21
2023-05-09T12:56:47.186Z,12.11
2023-05-09T12:59:21.971Z,12.04
2023-05-09T13:01:56.395Z,12.26
2023-05-09T13:04:31.138Z,12.51
2023-05-09T13:07:02.475Z,12.69
2023-05-09T13:09:33.702Z,12.92
2023-05-09T13:12:09.743Z,13.10
2023-05-09T13:14:39.217Z,13.02
2023-05-09T13:17:08.684Z,13.20
2023-05-09T13:19:44.144Z,13.34
2023-05-09T13:22:17.078Z,13.62
2023-05-09T13:24:46.550Z,13.95
2023-05-09T13:27:15.931Z,14.23
2023-05-09T13:29:45.516Z,14.46
2023-05-09T13:32:14.866Z,14.81
2023-05-09T13:34:44.402Z,14.98
2023-05-09T13:37:15.767Z,15.14
2023-05-09T13:39:45.231Z,15.22
2023-05-09T13:42:14.560Z,15.06
2023-05-09T13:44:43.896Z,14.83
2023-05-09T13:47:13.252Z,14.49
2023-05-09T13:49:42.592Z,14.17
2023-05-09T13:52:11.910Z,13.93
2023-05-09T13:54:43.358Z,13.78
2023-05-09T13:57:13.434Z,13.72
2023-05-09T13:59:42.999Z,13.52
2023-05-09T14:02:18.527Z,13.41
2023-05-09T14:04:52.922Z,13.16
2023-05-09T14:07:22.408Z,13.11
2023-05-09T14:09:58.749Z,12.92
2023-05-09T14:12:39.201Z,12.86
2023-05-09T14:15:10.657Z,12.81
2023-05-09T14:17:45.479Z,12.71
2023-05-09T14:20:15.898Z,12.66
2023-05-09T14:22:50.530Z,12.60
2023-05-09T14:25:22.363Z,12.54
2023-05-09T14:27:52.040Z,12.46
2023-05-09T14:30:21.624Z,12.40
2023-05-09T14:32:50.976Z,12.30
2023-05-09T14:35:20.779Z,12.40
2023-05-09T14:37:50.333Z,12.43
2023-05-09T14:40:23.003Z,12.35
2023-05-09T14:42:52.461Z,12.71
2023-05-09T14:45:21.780Z,12.75
2023-05-09T14:47:51.319Z,12.90
2023-05-09T14:50:21.922Z,13.05
2023-05-09T14:52:52.004Z,13.13
2023-05-09T14:55:23.637Z,13.42
2023-05-09T14:57:53.268Z,13.31
2023-05-09T15:00:24.028Z,13.56
2023-05-09T15:02:53.983Z,13.69
2023-05-09T15:05:23.606Z,13.79
2023-05-09T15:07:53.035Z,14.04
2023-05-09T15:10:29.415Z,14.04
2023-05-09T15:12:58.880Z,13.61
2023-05-09T15:15:28.772Z,13.85
2023-05-09T15:17:58.383Z,13.75
2023-05-09T15:20:27.775Z,13.53
2023-05-09T15:22:57.140Z,13.26
2023-05-09T15:25:28.515Z,13.15
2023-05-09T15:27:59.035Z,13.17
2023-05-09T15:30:29.130Z,13.16
2023-05-09T15:32:58.882Z,13.13
2023-05-09T15:35:28.696Z,13.00
2023-05-09T15:37:58.059Z,13.05
2023-05-09T15:40:29.861Z,12.97
2023-05-09T15:42:59.585Z,12.86
2023-05-09T15:45:44.846Z,12.61
2023-05-09T15:48:19.485Z,12.58
2023-05-09T15:50:49.243Z,12.41
2023-05-09T15:53:18.607Z,12.34
2023-05-09T15:55:55.139Z,12.90
2023-05-09T15:58:29.613Z,13.45
2023-05-09T16:00:59.191Z,13.76
2023-05-09T16:03:29.104Z,13.17
2023-05-09T16:06:02.648Z,12.61
2023-05-09T16:08:37.689Z,12.13
2023-05-09T16:13:46.220Z,11.39
2023-05-09T16:16:15.840Z,11.04
2023-05-09T16:18:45.180Z,10.94
2023-05-09T16:21:21.300Z,10.82
2023-05-09T16:23:50.753Z,10.90
2023-05-09T16:26:22.175Z,11.77
2023-05-09T16:28:56.769Z,12.56
2023-05-09T16:31:27.620Z,12.98
2023-05-09T16:33:57.941Z,13.51
2023-05-09T16:36:27.307Z,13.63
2023-05-09T16:38:56.882Z,12.94
2023-05-09T16:41:28.747Z,12.28
2023-05-09T16:43:58.408Z,11.87
2023-05-09T16:46:27.737Z,11.45
2023-05-09T16:49:03.329Z,11.45
2023-05-09T16:51:33.222Z,11.02
2023-05-09T16:54:02.721Z,10.96
2023-05-09T16:56:34.272Z,10.73
2023-05-09T16:59:03.783Z,10.45
2023-05-09T17:01:33.466Z,10.19
2023-05-09T17:04:06.194Z,9.93
2023-05-09T17:06:37.543Z,9.82
2023-05-09T17:09:18.418Z,9.66
2023-05-09T17:11:54.763Z,9.44
2023-05-09T17:14:29.628Z,9.30
2023-05-09T17:17:00.105Z,9.14
2023-05-09T17:19:29.755Z,8.92
2023-05-09T17:22:03.867Z,8.76
2023-05-09T17:24:33.351Z,8.60
2023-05-09T17:27:11.010Z,8.48
2023-05-09T17:29:45.585Z,8.39
2023-05-09T17:32:15.874Z,8.28
2023-05-09T17:34:45.197Z,8.23
2023-05-09T17:37:14.469Z,8.04
2023-05-09T17:39:44.050Z,8.17
2023-05-09T17:42:20.760Z,8.08
2023-05-09T17:44:56.147Z,8.05
2023-05-09T17:47:30.723Z,8.13
2023-05-09T17:50:00.561Z,8.22
2023-05-09T17:52:29.857Z,8.26
2023-05-09T17:54:59.273Z,8.25
2023-05-09T17:57:30.753Z,8.15
2023-05-09T18:00:00.361Z,8.12
2023-05-09T18:02:29.826Z,8.19
2023-05-09T18:04:59.626Z,8.22
2023-05-09T18:07:29.008Z,8.28
2023-05-09T18:09:58.282Z,8.31
2023-05-09T18:12:30.870Z,8.47
2023-05-09T18:15:00.838Z,8.54
2023-05-09T18:17:30.155Z,8.56
2023-05-09T18:19:59.468Z,8.65
2023-05-09T18:22:28.796Z,8.68
2023-05-09T18:24:58.197Z,8.71
2023-05-09T18:27:29.428Z,8.73
2023-05-09T18:29:59.035Z,8.68
2023-05-09T18:32:29.510Z,8.74
2023-05-09T18:34:58.913Z,8.76
2023-05-09T18:37:28.299Z,8.78
2023-05-09T18:39:57.732Z,8.79
2023-05-09T18:42:27.745Z,8.81
2023-05-09T18:45:00.546Z,8.79
2023-05-09T18:47:29.926Z,8.81
2023-05-09T18:50:01.721Z,8.90
2023-05-09T18:52:34.392Z,8.98
2023-05-09T18:55:05.852Z,9.09
2023-05-09T18:57:35.450Z,9.20
2023-05-09T19:00:07.864Z,9.25
2023-05-09T19:02:38.080Z,9.28
2023-05-09T19:05:09.093Z,9.22
2023-05-09T19:07:39.357Z,9.26
2023-05-09T19:12:45.813Z,9.36
2023-05-09T19:15:17.142Z,9.40
2023-05-09T19:17:46.702Z,9.37
2023-05-09T19:20:21.300Z,9.48
2023-05-09T19:22:52.368Z,9.49
2023-05-09T19:25:22.411Z,9.49
2023-05-09T19:27:52.414Z,9.44
2023-05-09T19:30:24.058Z,9.37
2023-05-09T19:32:54.590Z,9.27
2023-05-09T19:35:24.305Z,9.18
2023-05-09T19:37:53.704Z,9.07
2023-05-09T19:40:28.481Z,8.99
2023-05-09T19:42:57.944Z,9.01
2023-05-09T19:45:29.548Z,8.98
2023-05-09T19:47:59.099Z,8.94
2023-05-09T19:50:28.541Z,8.79
2023-05-09T19:52:57.998Z,8.83
2023-05-09T19:55:27.591Z,8.78
2023-05-09T19:57:57.136Z,8.82
2023-05-09T20:00:28.437Z,8.84
2023-05-09T20:03:02.935Z,8.73
2023-05-09T20:08:25.168Z,8.91
2023-05-09T20:10:54.840Z,8.96
2023-05-09T20:13:24.214Z,8.95
2023-05-09T20:15:57.242Z,8.88
2023-05-09T20:18:26.700Z,8.86
2023-05-09T20:20:56.523Z,8.76
2023-05-09T20:23:26.000Z,8.61
2023-05-09T20:25:55.452Z,8.72
2023-05-09T20:28:24.917Z,8.70
2023-05-09T20:33:32.212Z,8.47
2023-05-09T20:36:09.265Z,8.63
2023-05-09T20:38:38.723Z,8.64
2023-05-09T20:41:08.043Z,8.59
2023-05-09T20:43:38.076Z,8.56
2023-05-09T20:46:09.274Z,8.54
2023-05-09T20:48:38.793Z,8.36
2023-05-09T20:51:08.170Z,8.44
2023-05-09T20:53:49.470Z,8.43
2023-05-09T20:56:19.273Z,8.40
2023-05-09T20:58:48.525Z,8.44
2023-05-09T21:01:20.403Z,8.45
2023-05-09T21:03:55.780Z,8.54
2023-05-09T21:06:25.257Z,8.48
2023-05-09T21:08:54.598Z,8.46
2023-05-09T21:11:29.177Z,8.46
2023-05-09T21:13:58.546Z,8.44
2023-05-09T21:19:10.585Z,8.46
2023-05-09T21:21:40.299Z,8.31
2023-05-09T21:24:10.679Z,8.46
2023-05-09T21:26:45.039Z,8.36
2023-05-09T21:29:14.384Z,8.40
2023-05-09T21:31:45.801Z,8.36
2023-05-09T21:34:26.477Z,8.36
2023-05-09T21:36:55.864Z,8.35
2023-05-09T21:39:25.391Z,8.34
2023-05-09T21:41:59.950Z,8.29
2023-05-09T21:44:29.954Z,8.29
2023-05-09T21:47:01.460Z,8.29
2023-05-09T21:49:31.073Z,8.21
2023-05-09T21:52:00.740Z,8.08
2023-05-09T21:54:30.181Z,8.32
2023-05-09T21:56:59.320Z,8.32
2023-05-09T21:59:28.953Z,8.39
2023-05-09T22:02:03.257Z,8.43
2023-05-09T22:04:34.609Z,8.47
2023-05-09T22:07:09.080Z,8.47
2023-05-09T22:09:38.639Z,8.53
2023-05-09T22:12:08.603Z,8.52
2023-05-09T22:14:45.371Z,8.58
2023-05-09T22:17:33.156Z,8.59
2023-05-09T22:20:04.854Z,8.56
2023-05-09T22:22:35.105Z,8.58
2023-05-09T22:25:05.415Z,8.58
2023-05-09T22:27:34.890Z,8.60
2023-05-09T22:30:04.199Z,8.55
2023-05-09T22:32:35.784Z,8.53
2023-05-09T22:35:08.013Z,8.59
2023-05-09T22:37:37.540Z,8.61
2023-05-09T22:40:09.588Z,8.66
2023-05-09T22:42:43.988Z,8.66
2023-05-09T22:45:24.592Z,8.76
2023-05-09T22:47:54.061Z,8.77
2023-05-09T22:50:25.426Z,8.82
2023-05-09T22:52:59.875Z,8.75
2023-05-09T22:55:34.175Z,8.57
2023-05-09T22:58:05.306Z,8.53
2023-05-09T23:00:34.596Z,8.40
2023-05-09T23:05:53.112Z,8.51
2023-05-09T23:08:27.663Z,8.54
2023-05-09T23:10:56.958Z,8.42
2023-05-09T23:13:31.483Z,8.59
2023-05-09T23:16:00.674Z,8.49
2023-05-09T23:18:30.769Z,8.49
2023-05-09T23:21:01.917Z,8.66
2023-05-09T23:23:31.325Z,8.70
2023-05-09T23:26:00.585Z,8.73
2023-05-09T23:28:30.080Z,8.76
2023-05-09T23:30:59.322Z,8.64
2023-05-09T23:33:29.175Z,8.71
2023-05-09T23:35:58.931Z,8.66
2023-05-09T23:38:30.318Z,8.61
2023-05-09T23:43:40.528Z,8.61
2023-05-09T23:46:09.901Z,8.60
2023-05-09T23:48:39.368Z,8.56
2023-05-09T23:51:08.793Z,8.54
2023-05-09T23:53:40.121Z,8.59
2023-05-09T23:56:15.138Z,8.63
2023-05-09T23:58:44.581Z,8.47
